Paradise Valley, Nevada Weather observations

Data are for 10 minute period ending at time listed.
 Day   Time   Solar   Ave.   Ave.  Ave.  Vector  Max.   Baro.   Total    
  of    of     Rad.   Air    Rel.  Wind   Wind   Wind  Press.  Precip.   
Year   Day            Temp.  Hum.  Speed  Dir.   Gust                    
2017   (PST)  Kw/m2    F      %     mph   deg.    mph    mb.     in.     
-------------------------------------------------------------------------
 144    9:00   0.79   75.1    33   10.2   240    24.2   859.9    0.00 
 144    9:10   0.82   75.3    30   14.2   244    22.1   859.8    0.00 
 144    9:20   0.84   75.8    27   14.8   259    24.0   859.7    0.00 
 144    9:30   0.87   76.2    24   17.4   256    26.4   859.6    0.00 
 144    9:40   0.90   76.3    24   15.9   256    25.8   859.4    0.00 
 144    9:50   0.91   76.3    24   16.1   261    21.4   859.3    0.00 
 144   10:00   0.93   76.9    25   13.7   244    23.0   859.2    0.00 
 144   10:10   0.95   76.6    24   16.0   247    26.2   859.0    0.00 
 144   10:20   0.96   76.5    25   16.8   237    26.0   858.9    0.00 
 144   10:30   0.98   76.8    23   15.2   246    25.1   858.7    0.00 
 144   10:40   1.00   78.0    22   12.7   257    23.8   858.6    0.00 
 144   10:50   1.01   77.5    22   15.7   257    24.9   858.5    0.00 
 144   11:00   1.02   78.9    21    9.0   268    16.3   858.4    0.00 
 144   11:10   1.03   79.2    20   10.8   279    18.0   858.2    0.00 
 144   11:20   1.04   78.4    24   15.1   248    22.8   858.0    0.00 
 144   11:30   1.05   78.1    25   14.4   242    29.0   857.8    0.00 
 144   11:40   1.05   78.6    24    9.8   256    28.9   857.8    0.00 
 144   11:50   1.10   79.1    24   12.1   252    23.7   857.6    0.00 
 144   12:00   1.00   79.0    25   14.5   253    28.5   857.5    0.00 
 144   12:10   1.08   79.4    24   13.4   253    24.4   857.4    0.00 
 144   12:20   0.59   78.8    23   13.6   260    21.5   857.1    0.00 
 144   12:30   0.85   78.7    21   13.4   269    28.2   857.0    0.00 
 144   12:40   0.68   78.8    23   11.1   260    20.0   856.8    0.00 
 144   12:50   1.05   80.1    23   11.3   259    20.9   856.6    0.00 
 144   13:00   0.78   79.6    23   13.6   250    25.4   856.4    0.00 
 144   13:10   1.10   79.1    26   13.9   241    33.3   856.1    0.00 
 144   13:20   0.85   79.9    24   16.0   252    25.4   855.9    0.00 
 144   13:30   0.27   78.0    25   13.4   250    20.1   855.8    0.00 
 144   13:40   0.84   78.5    26   10.8   251    23.7   855.7    0.00 
 144   13:50   0.78   81.8    21    8.9   283    20.1   855.5    0.00 
 144   14:00   0.39   79.4    22    8.9   304    20.8   855.3    0.00 
 144   14:10   0.38   80.4    22    8.2   288    14.0   855.2    0.00 
 144   14:20   0.65   80.1    23   12.0   274    18.9   855.0    0.00 
 144   14:30   0.72   79.5    23    9.7   260    20.1   854.8    0.00 
 144   14:40   0.73   80.6    22   12.7   242    30.2   854.5    0.00 
 144   14:50   0.82   80.5    22   11.8   257    23.0   854.4    0.00 
 144   15:00   0.88   81.2    21   12.6   251    23.9   854.2    0.00 
 144   15:10   0.54   81.2    19   14.5   272    24.0   854.0    0.00 
 144   15:20   0.84   80.7    21   12.7   251    25.3   853.9    0.00 
 144   15:30   0.38   80.0    21   11.5   262    21.3   853.7    0.00 
 144   15:40   0.56   80.3    20    9.7   273    33.5   853.5    0.00 
 144   15:50   0.55   80.8    20    9.6   259    19.6   853.4    0.00 
 144   16:00   0.36   79.7    20   10.5   272    17.4   853.2    0.00 
 144   16:10   0.34   80.0    20    8.3   260    20.8   853.1    0.00 
 144   16:20   0.50   79.6    21    8.9   257    17.8   852.9    0.00 
 144   16:30   0.39   81.2    18   10.0   289    20.0   852.8    0.00 
 144   16:40   0.23   79.3    20   10.8   264    20.8   852.6    0.00 
 144   16:50   0.31   79.4    20   12.1   243    21.9   852.5    0.00 
 144   17:00   0.17   78.7    19   10.4   274    19.7   852.4    0.00 
 144   17:10   0.19   78.8    20    9.9   297    18.0   852.5    0.00 
 144   17:20   0.17   75.9    26   11.7   337    21.5   852.5    0.00 
 144   17:30   0.12   74.0    28   10.2   340    15.4   852.5    0.00 
 144   17:40   0.15   73.0    29    7.6   338    11.3   852.4    0.00 
 144   17:50   0.11   72.8    27    9.8   329    13.8   852.3    0.00 
 144   18:00   0.09   71.8    27   12.3   330    21.3   852.4    0.00 
 144   18:10   0.08   71.1    22   16.7   318    24.0   852.6    0.00 
 144   18:20   0.06   70.1    22   17.9   319    25.4   852.6    0.00 
 144   18:30   0.05   69.0    21   15.1   320    22.9   852.7    0.00 
 144   18:40   0.05   68.5    21   13.7   320    19.3   852.7    0.00 
 144   18:50   0.03   68.0    21   13.0   322    21.0   852.6    0.00 
 144   19:00   0.02   67.7    20   13.7   323    20.5   852.8    0.00 
 144   19:10   0.01   66.8    20   11.2   326    16.4   853.0    0.00 
 144   19:20   0.01   66.5    20   10.9   332    16.7   853.2    0.00 
 144   19:30   0.00   65.6    22   10.5   337    17.6   853.6    0.00 
 144   19:40   0.00   65.6    20    8.4   348    17.4   854.3    0.00 
 144   19:50   0.00   63.6    27    5.6    51    10.6   854.5    0.00 
 144   20:00   0.00   61.5    31    5.5     7    10.3   854.7    0.00 
 144   20:10   0.00   61.2    29    7.2     6    12.6   854.7    0.00 
 144   20:20   0.00   60.4    32    5.3   358     9.9   855.1    0.00 
 144   20:30   0.00   60.3    28    6.3    11    10.2   855.3    0.00 
 144   20:40   0.00   60.4    27    5.7    14    11.0   855.4    0.00 
 144   20:50   0.00   59.6    30    4.3    32     9.8   855.6    0.00 
 144   21:00   0.00   59.1    33    5.8   334    10.7   855.8    0.00 
 144   21:10   0.00   59.2    33    4.6   320    12.2   855.9    0.00 
 144   21:20   0.00   60.4    25    7.1   321    13.1   855.7    0.00 
 144   21:30   0.00   60.9    17   12.3   320    18.7   855.5    0.00 
 144   21:40   0.00   59.1    30   10.7   343    20.8   855.8    0.00 
 144   21:50   0.00   57.4    36    7.6     8    12.1   855.9    0.00 
 144   22:00   0.00   57.7    28    7.8    54    10.8   855.7    0.00 
 144   22:10   0.00   57.9    26    6.5    42    10.2   855.7    0.00 
 144   22:20   0.00   56.4    32    3.9     4     6.3   856.3    0.00 
 144   22:30   0.00   55.6    36    3.7   353     8.3   856.7    0.00 
 144   22:40   0.00   56.0    37    8.1   306    17.6   856.9    0.00 
 144   22:50   0.00   56.9    40    7.2   227    10.4   856.7    0.00 
 144   23:00   0.00   56.5    40    5.8   180     9.6   856.6    0.00 
 144   23:10   0.00   56.0    42    6.4   215    10.2   856.6    0.00 
 144   23:20   0.00   55.8    41    7.3   253    11.7   856.8    0.00 
 144   23:30   0.00   56.8    37    4.0   245     8.5   856.8    0.00 
 144   23:40   0.00   55.6    36    3.7   354     8.0   857.0    0.00 
 144   23:50   0.00   55.4    28    4.1   304     9.1   856.7    0.00 
 145    0:00   0.00   55.4    29    8.5   295    15.9   857.0    0.00 
 145    0:10   0.00   56.6    34    9.1   243    12.8   856.7    0.00 
 145    0:20   0.00   55.4    37    5.7   258    10.2   856.6    0.00 
 145    0:30   0.00   54.2    31    4.1   321     8.2   856.6    0.00 
 145    0:40   0.00   53.7    38    3.8   252     6.1   856.6    0.00 
 145    0:50   0.00   53.2    36    7.0   324    10.9   856.3    0.00 
 145    1:00   0.00   51.4    46    8.8   345    13.2   856.0    0.00 
 145    1:10   0.00   51.5    39    9.8   334    15.2   856.4    0.00 
 145    1:20   0.00   52.3    32   10.8   330    15.1   856.6    0.00 
 145    1:30   0.00   52.7    30    8.7   326    13.7   856.6    0.00 
 145    1:40   0.00   52.6    33    9.3   329    12.6   856.5    0.00 
 145    1:50   0.00   50.5    56    7.4   339    12.3   856.5    0.00 
 145    2:00   0.00   50.0    58    7.8   338    12.6   856.8    0.00 
 145    2:10   0.00   50.2    57    5.9   341     8.3   856.8    0.00 
 145    2:20   0.00   50.0    54    6.2   334     9.5   856.8    0.00 
 145    2:30   0.00   49.9    56    4.5   354     9.5   856.9    0.00 
 145    2:40   0.00   49.5    56    4.2     9     6.6   857.0    0.00 
 145    2:50   0.00   49.1    57    3.5    13     6.6   857.1    0.00 
 145    3:00   0.00   49.0    51    4.3    34     6.4   857.2    0.00 
 145    3:10   0.00   48.2    53    2.7    52     7.1   857.3    0.00 
 145    3:20   0.00   47.6    56    0.6    66     2.0   857.4    0.00 
 145    3:30   0.00   46.6    58    1.4    66     2.6   857.3    0.00 
 145    3:40   0.00   46.5    57    0.0    63     0.9   857.3    0.00 
 145    3:50   0.00   46.2    58    0.0    63     0.4   857.2    0.00 
 145    4:00   0.00   45.6    59    1.3    17     3.9   857.3    0.00 
 145    4:10   0.00   44.7    57    3.0   314     4.0   857.4    0.00 
 145    4:20   0.00   43.6    60    2.8   325     6.1   857.2    0.00 
 145    4:30   0.01   42.4    59    5.2   322     6.4   857.3    0.00 
 145    4:40   0.01   42.5    56    6.0   322     8.4   857.3    0.00 
 145    4:50   0.02   43.4    53    7.6   324    10.3   857.4    0.00 
 145    5:00   0.02   44.0    52    8.0   325    11.2   857.5    0.00 
 145    5:10   0.05   44.0    53    7.5   325    11.1   857.5    0.00 
 145    5:20   0.10   44.7    53    6.9   334     9.6   857.6    0.00 
 145    5:30   0.12   45.5    54    6.3   340     9.5   857.5    0.00 
 145    5:40   0.15   46.6    51    6.0   349    10.4   857.5    0.00 
 145    5:50   0.18   47.6    52    5.4   351     8.2   857.5    0.00 
 145    6:00   0.21   48.1    51    6.0   343     9.2   857.5    0.00 
 145    6:10   0.25   48.4    50    7.0   347    10.8   857.6    0.00 
 145    6:20   0.28   48.9    49    7.3   343    11.1   857.5    0.00 
 145    6:30   0.19   48.9    51    6.3   354    10.4   857.4    0.00 
 145    6:40   0.25   48.6    55    4.3   344     6.6   857.5    0.00 
 145    6:50   0.32   50.5    50    4.3   353     7.4   857.5    0.00 
 145    7:00   0.34   50.7    48    6.0    20     8.0   857.5    0.00 
 145    7:10   0.46   52.8    43    7.4    26    10.4   857.6    0.00 
 145    7:20   0.50   53.0    41    8.1    12    11.0   857.6    0.00 
 145    7:30   0.53   53.8    40    6.5    25     8.8   857.6    0.00 
 145    7:40   0.57   53.8    38    6.9    39    10.2   857.5    0.00 
 145    7:50   0.61   54.1    37    5.3    21     9.5   857.6    0.00 
 145    8:00   0.65   54.9    35    3.7    17     6.9   857.5    0.00 
 145    8:10   0.68   56.5    32    1.8   340     4.7   857.6    0.00 
 145    8:20   0.52   55.6    33    3.4    42     5.7   857.6    0.00 
 145    8:30   0.73   56.2    31    2.3    14     5.7   857.7    0.00 
 145    8:40   0.76   56.9    29    2.7    39     7.1   857.6    0.00 
 145    8:50   0.78   57.5    30    3.1    79     7.6   857.5    0.00 

Return to Paradise Valley graphs page.


Western Regional Climate Center,wrcc@dri.edu